Time;durP1;ratioP1;P1;durP2;ratioP2;P2;SDS_P1;SDS_P2;PMS_P1;PMS_P2;Temp;Humidity;BMP_temperature;BMP_pressure;BME280_temperature;BME280_humidity;BME280_pressure;Samples;Min_cycle;Max_cycle;Signal;HPM_P1;HPM_P2
2021/12/31 00:01:34;;;;;;;5.65;2.00;;;13.70;99.90;;;;;;5115384;28;20161;-56
2021/12/31 00:04:00;;;;;;;5.88;2.03;;;13.70;99.90;;;;;;5115298;28;20275;-52
2021/12/31 00:06:25;;;;;;;5.28;2.00;;;13.80;99.90;;;;;;5115495;28;20169;-56
2021/12/31 00:08:51;;;;;;;7.28;2.17;;;13.80;99.90;;;;;;5115573;28;20169;-56
2021/12/31 00:11:16;;;;;;;10.35;2.28;;;13.80;99.90;;;;;;5115072;28;20591;-53
2021/12/31 00:13:42;;;;;;;6.53;2.10;;;13.80;99.90;;;;;;5115223;28;20230;-55
2021/12/31 00:16:07;;;;;;;4.15;2.00;;;13.80;99.90;;;;;;5115179;28;20179;-56
2021/12/31 00:18:33;;;;;;;6.43;2.00;;;13.80;99.90;;;;;;5115061;28;20164;-55
2021/12/31 00:21:00;;;;;;;6.30;1.80;;;13.80;99.90;;;;;;5115299;28;20192;-49
2021/12/31 00:23:27;;;;;;;4.80;1.90;;;13.80;99.90;;;;;;5115480;28;20196;-56
2021/12/31 00:25:52;;;;;;;4.13;2.33;;;13.80;99.90;;;;;;5114994;28;20164;-55
2021/12/31 00:28:18;;;;;;;11.35;2.38;;;13.90;99.90;;;;;;5114836;28;20172;-56
2021/12/31 00:30:45;;;;;;;4.65;1.75;;;13.80;99.90;;;;;;5114937;28;20173;-56
2021/12/31 00:33:10;;;;;;;9.10;2.20;;;13.90;99.90;;;;;;5115123;28;20244;-56
2021/12/31 00:35:37;;;;;;;5.10;1.73;;;13.90;99.90;;;;;;5114973;28;20651;-55
2021/12/31 00:38:03;;;;;;;6.25;2.30;;;13.90;99.90;;;;;;5114990;28;20217;-55
2021/12/31 00:40:29;;;;;;;4.93;2.55;;;13.80;99.90;;;;;;5114962;28;20240;-55
2021/12/31 00:42:55;;;;;;;7.82;1.73;;;15.10;99.90;;;;;;5115184;28;20165;-55
2021/12/31 00:45:26;;;;;;;6.57;1.70;;;13.80;99.90;;;;;;5114539;28;20240;-55
2021/12/31 00:47:53;;;;;;;5.70;2.17;;;13.80;99.90;;;;;;5114500;28;20160;-56
2021/12/31 00:50:19;;;;;;;8.82;1.90;;;13.90;99.90;;;;;;5114455;28;20196;-54
2021/12/31 00:52:45;;;;;;;5.22;2.28;;;13.80;99.90;;;;;;5096145;28;20196;-56
2021/12/31 00:55:11;;;;;;;6.57;2.15;;;13.80;99.90;;;;;;5096127;28;20255;-57
2021/12/31 00:57:37;;;;;;;4.63;1.77;;;13.80;99.90;;;;;;5114395;28;20161;-57
2021/12/31 01:00:05;;;;;;;5.00;2.10;;;13.80;99.90;;;;;;5114528;28;20177;-56
2021/12/31 01:02:31;;;;;;;8.82;2.20;;;13.90;99.90;;;;;;5114481;28;20192;-56
2021/12/31 01:04:57;;;;;;;7.55;2.55;;;13.90;99.90;;;;;;5114505;28;20660;-57
2021/12/31 01:07:22;;;;;;;4.38;2.35;;;13.90;99.90;;;;;;5114382;28;20176;-56
2021/12/31 01:09:48;;;;;;;3.00;1.70;;;13.90;99.90;;;;;;5114335;28;20554;-54
2021/12/31 01:12:14;;;;;;;6.53;2.00;;;13.90;99.90;;;;;;5113924;28;20212;-57
2021/12/31 01:14:53;;;;;;;5.43;2.22;;;13.90;99.90;;;;;;5114258;28;20168;-57
2021/12/31 01:17:25;;;;;;;4.68;2.08;;;13.90;99.90;;;;;;5114150;28;20175;-55
2021/12/31 01:19:50;;;;;;;7.60;2.08;;;13.80;99.90;;;;;;5113556;28;20294;-55
2021/12/31 01:22:22;;;;;;;7.25;1.77;;;13.90;99.90;;;;;;5113784;28;20196;-55
2021/12/31 01:24:48;;;;;;;3.53;1.73;;;13.90;99.90;;;;;;5113793;28;20663;-53
2021/12/31 01:27:14;;;;;;;6.35;2.00;;;13.90;99.90;;;;;;5113783;28;20247;-56
2021/12/31 01:29:40;;;;;;;3.20;1.80;;;13.90;99.90;;;;;;5113746;28;20294;-47
2021/12/31 01:32:07;;;;;;;5.10;1.67;;;13.90;99.90;;;;;;5113665;28;20239;-49
2021/12/31 01:34:32;;;;;;;4.50;2.08;;;13.90;99.90;;;;;;5095348;28;20168;-51
2021/12/31 01:36:59;;;;;;;7.03;2.13;;;13.90;99.90;;;;;;5113860;28;20168;-50
2021/12/31 01:39:28;;;;;;;4.00;1.80;;;13.90;99.90;;;;;;5113750;28;20302;-47
2021/12/31 01:41:57;;;;;;;4.65;1.90;;;13.90;99.90;;;;;;5113485;28;20233;-47
2021/12/31 01:44:26;;;;;;;5.03;2.38;;;13.90;99.90;;;;;;5113624;28;20563;-49
2021/12/31 01:46:54;;;;;;;4.47;1.83;;;13.90;99.90;;;;;;5113378;28;20165;-47
2021/12/31 01:49:22;;;;;;;2.72;1.83;;;13.90;99.90;;;;;;5113338;28;20577;-48
2021/12/31 01:51:47;;;;;;;5.70;2.00;;;13.90;99.90;;;;;;5113585;28;20550;-48
2021/12/31 01:54:13;;;;;;;3.30;1.70;;;13.90;99.90;;;;;;5113573;28;20172;-47
2021/12/31 01:56:39;;;;;;;3.42;1.50;;;13.90;99.90;;;;;;5113202;28;20620;-47
2021/12/31 01:59:07;;;;;;;4.35;1.90;;;13.90;99.90;;;;;;5113047;28;20256;-49
2021/12/31 02:01:34;;;;;;;3.95;1.73;;;13.90;99.90;;;;;;5113000;28;20199;-47
2021/12/31 02:04:00;;;;;;;5.65;1.70;;;13.90;99.90;;;;;;5112839;28;20204;-47
2021/12/31 02:06:26;;;;;;;3.47;1.70;;;13.90;99.90;;;;;;5113376;28;20613;-47
2021/12/31 02:08:52;;;;;;;2.90;1.63;;;13.90;99.90;;;;;;5113012;28;20170;-48
2021/12/31 02:11:20;;;;;;;3.80;1.80;;;13.90;99.90;;;;;;5112863;28;20291;-49
2021/12/31 02:13:46;;;;;;;7.53;1.85;;;14.00;99.90;;;;;;5112906;28;20196;-47
2021/12/31 02:16:12;;;;;;;4.80;2.22;;;14.00;99.90;;;;;;5112926;28;20161;-48
2021/12/31 02:18:38;;;;;;;2.88;1.58;;;14.00;99.90;;;;;;5112888;28;20680;-49
2021/12/31 02:21:08;;;;;;;2.95;1.42;;;14.00;99.90;;;;;;5112890;28;20160;-47
2021/12/31 02:23:42;;;;;;;3.47;1.60;;;14.00;99.90;;;;;;5094742;28;20630;-48
2021/12/31 02:26:09;;;;;;;3.85;1.45;;;14.00;99.90;;;;;;5112659;28;20645;-47
2021/12/31 02:28:34;;;;;;;2.42;1.70;;;14.00;99.90;;;;;;5112740;28;20524;-47
2021/12/31 02:31:03;;;;;;;3.38;1.67;;;14.00;99.90;;;;;;5111763;28;20168;-49
2021/12/31 02:33:29;;;;;;;9.27;1.90;;;14.00;99.90;;;;;;5113225;28;20530;-47
2021/12/31 02:35:54;;;;;;;4.90;1.70;;;14.00;99.90;;;;;;5112905;28;20228;-50
2021/12/31 02:38:20;;;;;;;2.13;1.30;;;14.00;99.90;;;;;;5112636;28;20168;-50
2021/12/31 02:40:45;;;;;;;4.50;1.80;;;14.00;99.90;;;;;;5112843;28;20179;-48
2021/12/31 02:43:11;;;;;;;3.40;2.05;;;14.00;99.90;;;;;;5112714;28;20191;-53
2021/12/31 02:45:37;;;;;;;2.78;1.63;;;14.00;99.90;;;;;;5112801;28;20182;-51
2021/12/31 02:48:05;;;;;;;3.25;1.52;;;14.00;99.90;;;;;;5112364;28;20651;-48
2021/12/31 02:50:34;;;;;;;5.60;1.70;;;14.00;99.90;;;;;;5112724;28;20168;-52
2021/12/31 02:53:09;;;;;;;8.20;2.03;;;14.00;99.90;;;;;;5112557;28;20160;-49
2021/12/31 02:55:36;;;;;;;2.50;1.50;;;14.00;99.90;;;;;;5112673;28;20220;-47
2021/12/31 02:58:03;;;;;;;3.17;1.73;;;14.00;99.90;;;;;;5112336;28;20196;-51
2021/12/31 03:00:30;;;;;;;3.63;1.52;;;14.00;99.90;;;;;;5112316;28;20270;-47
2021/12/31 03:02:58;;;;;;;2.70;1.38;;;14.00;99.90;;;;;;5113559;28;20187;-48
2021/12/31 03:05:26;;;;;;;5.45;1.60;;;14.00;99.90;;;;;;5112643;28;20294;-47
2021/12/31 03:07:53;;;;;;;3.33;1.70;;;14.00;99.90;;;;;;5112364;28;20161;-47
2021/12/31 03:10:20;;;;;;;2.83;1.75;;;14.00;99.90;;;;;;5112238;28;20235;-48
2021/12/31 03:12:51;;;;;;;2.85;1.52;;;14.00;99.90;;;;;;5112283;28;20169;-48
2021/12/31 03:15:17;;;;;;;4.22;2.20;;;14.00;99.90;;;;;;5112242;28;20639;-48
2021/12/31 03:17:44;;;;;;;4.00;1.40;;;13.90;99.90;;;;;;5112293;28;20208;-47
2021/12/31 03:20:16;;;;;;;4.30;1.60;;;13.90;99.90;;;;;;5112257;28;20161;-47
2021/12/31 03:22:43;;;;;;;6.25;1.52;;;13.90;99.90;;;;;;5095248;28;20251;-47
2021/12/31 03:25:10;;;;;;;2.33;1.42;;;13.90;99.90;;;;;;5112081;28;20295;-47
2021/12/31 03:27:36;;;;;;;3.38;1.50;;;14.00;99.90;;;;;;5112221;28;20168;-47
2021/12/31 03:30:04;;;;;;;2.33;1.33;;;14.00;99.90;;;;;;5112302;28;20177;-48
2021/12/31 03:32:29;;;;;;;3.65;1.50;;;14.00;99.90;;;;;;5112077;28;20210;-47
2021/12/31 03:34:55;;;;;;;2.03;1.55;;;14.00;99.90;;;;;;5112390;28;20180;-47
2021/12/31 03:37:20;;;;;;;2.55;1.38;;;14.00;99.90;;;;;;5111985;28;20165;-48
2021/12/31 03:39:46;;;;;;;2.65;1.30;;;13.90;99.90;;;;;;5112021;28;20501;-47
2021/12/31 03:42:15;;;;;;;3.92;1.40;;;13.90;99.90;;;;;;5095271;28;20161;-48
2021/12/31 03:44:44;;;;;;;3.75;1.60;;;14.00;99.90;;;;;;5116003;27;20213;-47
2021/12/31 03:47:09;;;;;;;7.15;1.50;;;13.90;99.90;;;;;;5097584;28;20179;-48
2021/12/31 03:49:35;;;;;;;4.32;1.73;;;13.90;99.90;;;;;;5115808;28;20259;-48
2021/12/31 03:52:00;;;;;;;1.95;1.52;;;13.90;99.90;;;;;;5115725;28;20173;-49
2021/12/31 03:54:26;;;;;;;4.07;1.63;;;13.90;99.90;;;;;;5115950;28;20165;-47
2021/12/31 03:56:51;;;;;;;2.97;1.60;;;13.90;99.90;;;;;;5115662;28;20165;-46
2021/12/31 03:59:17;;;;;;;2.75;1.38;;;13.90;99.90;;;;;;5115552;28;20196;-47
2021/12/31 04:01:42;;;;;;;3.65;1.77;;;13.90;99.90;;;;;;5115514;28;20175;-47
2021/12/31 04:04:09;;;;;;;5.03;2.92;;;13.90;99.90;;;;;;5115359;27;20212;-47
2021/12/31 04:06:35;;;;;;;3.03;2.05;;;13.80;99.90;;;;;;5115340;28;20704;-47
2021/12/31 04:09:00;;;;;;;2.45;1.60;;;13.70;99.90;;;;;;5115339;28;20251;-47
2021/12/31 04:11:26;;;;;;;8.90;1.80;;;13.50;99.90;;;;;;5115425;28;20292;-47
2021/12/31 04:13:52;;;;;;;1.90;1.70;;;13.50;99.90;;;;;;5115208;28;20168;-47
2021/12/31 04:16:18;;;;;;;4.35;1.55;;;13.40;99.90;;;;;;5115496;28;20173;-47
2021/12/31 04:18:43;;;;;;;4.20;1.90;;;13.30;99.90;;;;;;5115113;28;20684;-47
2021/12/31 04:21:09;;;;;;;4.05;1.80;;;13.30;99.90;;;;;;5115082;28;20164;-47
2021/12/31 04:23:47;;;;;;;5.85;1.85;;;13.30;99.90;;;;;;5115210;28;20193;-47
2021/12/31 04:26:14;;;;;;;4.28;2.05;;;13.20;99.90;;;;;;5115179;28;20547;-47
2021/12/31 04:28:40;;;;;;;4.47;2.13;;;13.20;99.90;;;;;;5115215;28;20173;-47
2021/12/31 04:31:05;;;;;;;6.15;1.90;;;13.20;99.90;;;;;;5114862;28;20165;-47
2021/12/31 04:33:31;;;;;;;5.03;2.30;;;13.30;99.90;;;;;;5114861;28;20186;-48
2021/12/31 04:35:57;;;;;;;7.00;2.65;;;13.30;99.90;;;;;;5115138;28;20216;-47
2021/12/31 04:38:23;;;;;;;4.95;2.25;;;13.20;99.90;;;;;;5114926;28;20239;-47
2021/12/31 04:40:48;;;;;;;3.90;2.17;;;13.20;99.90;;;;;;5114758;28;21128;-47
2021/12/31 04:43:14;;;;;;;4.60;2.67;;;13.20;99.90;;;;;;5114657;28;20300;-47
2021/12/31 04:45:40;;;;;;;5.22;2.17;;;13.20;99.90;;;;;;5114617;28;20635;-47
2021/12/31 04:48:05;;;;;;;5.68;2.13;;;13.20;99.90;;;;;;5114577;28;20247;-46
2021/12/31 04:50:31;;;;;;;4.90;2.10;;;13.20;99.90;;;;;;5114595;28;20168;-46
2021/12/31 04:52:56;;;;;;;4.35;2.05;;;13.20;99.90;;;;;;5114416;28;20247;-46
2021/12/31 04:55:23;;;;;;;5.35;2.30;;;13.20;99.90;;;;;;5114063;28;20168;-46
2021/12/31 04:57:49;;;;;;;3.13;2.60;;;13.20;99.90;;;;;;5114408;28;20177;-48
2021/12/31 05:00:15;;;;;;;7.05;2.75;;;13.20;99.90;;;;;;5114430;28;20165;-50
2021/12/31 05:02:41;;;;;;;6.03;2.70;;;13.30;99.90;;;;;;5113907;28;20284;-51
2021/12/31 05:05:07;;;;;;;4.78;2.28;;;13.30;99.90;;;;;;5114332;28;20204;-48
2021/12/31 05:07:32;;;;;;;4.95;2.58;;;13.30;99.90;;;;;;5113829;28;20221;-49
2021/12/31 05:09:58;;;;;;;4.25;2.03;;;13.20;99.90;;;;;;5114394;28;20199;-49
2021/12/31 05:12:28;;;;;;;6.55;2.30;;;13.20;99.90;;;;;;5113975;28;20223;-49
2021/12/31 05:14:54;;;;;;;3.67;2.20;;;13.20;99.90;;;;;;5113943;28;20624;-47
2021/12/31 05:17:20;;;;;;;5.45;2.28;;;13.20;99.90;;;;;;5113952;28;20239;-46
2021/12/31 05:19:45;;;;;;;4.57;2.30;;;13.20;99.90;;;;;;5114218;28;20196;-47
2021/12/31 05:22:14;;;;;;;4.20;2.22;;;13.30;99.90;;;;;;5113921;28;20180;-47
2021/12/31 05:24:40;;;;;;;3.85;2.10;;;13.30;99.90;;;;;;5113697;28;20208;-47
2021/12/31 05:27:07;;;;;;;3.75;2.00;;;13.30;99.90;;;;;;5113815;28;20176;-47
2021/12/31 05:29:33;;;;;;;3.30;1.92;;;13.30;99.90;;;;;;5113678;28;20191;-47
2021/12/31 05:31:59;;;;;;;4.18;2.05;;;13.30;99.90;;;;;;5113730;28;20161;-47
2021/12/31 05:34:24;;;;;;;4.57;2.33;;;13.30;99.90;;;;;;5113935;28;20643;-47
2021/12/31 05:36:50;;;;;;;5.43;2.10;;;13.30;99.90;;;;;;5113414;28;20175;-47
2021/12/31 05:39:15;;;;;;;2.88;2.00;;;13.30;99.90;;;;;;5095250;28;20173;-47
2021/12/31 05:41:41;;;;;;;4.72;2.28;;;13.20;99.90;;;;;;5113439;28;20588;-47
2021/12/31 05:44:07;;;;;;;4.97;2.08;;;13.20;99.90;;;;;;5113351;28;20253;-47
2021/12/31 05:46:34;;;;;;;5.43;2.38;;;13.20;99.90;;;;;;5113659;28;20161;-47
2021/12/31 05:48:59;;;;;;;5.22;2.85;;;13.20;99.90;;;;;;5113202;28;20169;-47
2021/12/31 05:51:26;;;;;;;6.68;2.90;;;13.20;99.90;;;;;;5113605;28;20244;-47
2021/12/31 05:53:52;;;;;;;6.65;2.60;;;13.20;99.90;;;;;;5113553;28;20173;-46
2021/12/31 05:56:18;;;;;;;5.88;2.53;;;13.20;99.90;;;;;;5113234;28;20172;-47
2021/12/31 05:58:43;;;;;;;7.40;3.33;;;13.20;99.90;;;;;;5113122;28;20172;-46
2021/12/31 06:01:11;;;;;;;5.35;2.90;;;13.10;99.90;;;;;;5113157;28;20229;-52
2021/12/31 06:03:36;;;;;;;4.72;2.40;;;13.10;99.90;;;;;;5112892;28;20199;-47
2021/12/31 06:06:02;;;;;;;4.38;1.90;;;13.20;99.90;;;;;;5094490;28;20549;-47
2021/12/31 06:08:28;;;;;;;9.98;3.05;;;13.20;99.90;;;;;;5113312;28;20198;-48
2021/12/31 06:10:53;;;;;;;5.03;2.60;;;13.20;99.90;;;;;;5112798;28;20299;-47
2021/12/31 06:13:19;;;;;;;4.35;2.65;;;13.10;99.90;;;;;;5113199;28;20179;-47
2021/12/31 06:15:47;;;;;;;5.60;2.75;;;13.10;99.90;;;;;;5113204;28;20168;-47
2021/12/31 06:18:13;;;;;;;9.07;2.85;;;13.10;99.90;;;;;;5112831;28;20620;-47
2021/12/31 06:20:41;;;;;;;6.15;2.50;;;13.00;99.90;;;;;;5112516;28;20177;-49
2021/12/31 06:23:06;;;;;;;4.32;2.63;;;13.00;99.90;;;;;;5113103;28;20270;-47
2021/12/31 06:25:33;;;;;;;5.25;2.40;;;13.00;99.90;;;;;;5112538;28;20200;-47
2021/12/31 06:27:59;;;;;;;3.30;2.25;;;13.00;99.90;;;;;;5112867;28;20175;-48
2021/12/31 06:30:25;;;;;;;4.35;3.03;;;12.90;99.90;;;;;;5113192;28;20176;-47
2021/12/31 06:32:50;;;;;;;2.88;2.10;;;12.90;99.90;;;;;;5094407;28;20256;-47
2021/12/31 06:35:16;;;;;;;5.03;2.33;;;12.90;99.90;;;;;;5112615;28;20156;-49
2021/12/31 06:37:41;;;;;;;4.45;2.30;;;12.80;99.90;;;;;;5112553;28;20177;-47
2021/12/31 06:40:08;;;;;;;5.95;2.72;;;12.70;99.90;;;;;;5112822;28;20259;-47
2021/12/31 06:42:35;;;;;;;5.03;2.55;;;12.70;99.90;;;;;;5112555;28;20171;-51
2021/12/31 06:45:01;;;;;;;7.07;3.45;;;12.60;99.90;;;;;;5112644;28;20212;-48
2021/12/31 06:47:26;;;;;;;5.05;2.88;;;12.60;99.90;;;;;;5112705;28;20667;-51
2021/12/31 06:49:52;;;;;;;8.00;3.00;;;12.50;99.90;;;;;;5112396;28;20221;-48
2021/12/31 06:52:17;;;;;;;5.30;2.58;;;12.50;99.90;;;;;;5112341;28;20568;-50
2021/12/31 06:54:43;;;;;;;7.05;3.30;;;12.40;99.90;;;;;;5112349;28;20636;-47
2021/12/31 06:57:08;;;;;;;6.82;2.72;;;12.40;99.90;;;;;;5112249;28;20753;-48
2021/12/31 06:59:34;;;;;;;10.02;2.85;;;12.40;99.90;;;;;;5112421;28;20709;-48
2021/12/31 07:01:59;;;;;;;3.40;2.53;;;12.30;99.90;;;;;;5112377;28;20199;-49
2021/12/31 07:04:25;;;;;;;3.38;2.35;;;12.20;99.90;;;;;;5112541;28;20203;-48
2021/12/31 07:06:50;;;;;;;5.00;2.40;;;12.20;99.90;;;;;;5112547;28;20655;-47
2021/12/31 07:09:16;;;;;;;4.93;2.60;;;12.20;99.90;;;;;;5112343;28;20218;-47
2021/12/31 07:11:41;;;;;;;5.65;2.78;;;12.20;99.90;;;;;;5112159;28;20216;-49
2021/12/31 07:14:07;;;;;;;4.78;2.60;;;12.20;99.90;;;;;;5112241;28;20160;-53
2021/12/31 07:16:33;;;;;;;5.35;2.42;;;12.20;99.90;;;;;;5112671;28;20169;-51
2021/12/31 07:18:58;;;;;;;2.65;2.40;;;12.10;99.90;;;;;;5116559;28;20160;-57
2021/12/31 07:21:24;;;;;;;5.03;2.90;;;12.10;99.90;;;;;;5116669;28;20203;-54
2021/12/31 07:23:49;;;;;;;3.17;2.60;;;12.10;99.90;;;;;;5116088;28;20196;-48
2021/12/31 07:26:15;;;;;;;9.32;2.53;;;12.10;99.90;;;;;;5116147;28;20165;-49
2021/12/31 07:28:40;;;;;;;5.13;2.78;;;12.20;99.90;;;;;;5116081;28;20210;-48
2021/12/31 07:31:11;;;;;;;5.90;2.20;;;12.20;99.90;;;;;;5116082;28;20186;-49
2021/12/31 07:33:37;;;;;;;4.57;2.50;;;12.20;99.90;;;;;;5116096;28;20169;-47
2021/12/31 07:36:03;;;;;;;5.82;2.92;;;12.20;99.90;;;;;;5115967;28;20176;-50
2021/12/31 07:38:33;;;;;;;5.43;2.85;;;12.20;99.90;;;;;;5116221;28;20171;-55
2021/12/31 07:40:58;;;;;;;4.32;2.78;;;12.20;99.90;;;;;;5116154;28;20549;-51
2021/12/31 07:43:24;;;;;;;7.53;2.83;;;12.20;99.90;;;;;;5116067;28;20165;-53
2021/12/31 07:45:51;;;;;;;3.75;2.58;;;12.30;99.90;;;;;;5116093;28;20534;-52
2021/12/31 07:48:17;;;;;;;3.88;2.85;;;12.30;99.90;;;;;;5116007;28;20169;-52
2021/12/31 07:50:42;;;;;;;7.25;2.72;;;12.20;99.90;;;;;;5097448;28;20175;-54
2021/12/31 07:53:08;;;;;;;3.20;2.25;;;12.20;99.90;;;;;;5115686;28;20169;-59
2021/12/31 07:55:35;;;;;;;7.72;3.10;;;12.20;99.90;;;;;;5115626;28;20176;-55
2021/12/31 07:58:01;;;;;;;6.47;2.70;;;12.10;99.90;;;;;;5115834;28;20169;-52
2021/12/31 08:00:27;;;;;;;5.35;2.45;;;12.10;99.90;;;;;;5115766;28;20578;-51
2021/12/31 08:02:55;;;;;;;8.82;2.45;;;12.10;99.90;;;;;;5115484;28;20160;-53
2021/12/31 08:05:21;;;;;;;8.02;4.53;;;12.10;99.90;;;;;;5115368;28;20207;-57
2021/12/31 08:07:47;;;;;;;7.80;4.18;;;12.10;99.90;;;;;;5115309;28;20157;-58
2021/12/31 08:10:12;;;;;;;3.65;2.88;;;12.00;99.90;;;;;;5115215;28;20169;-54
2021/12/31 08:12:38;;;;;;;4.07;2.10;;;12.10;99.90;;;;;;5115325;28;20172;-57
2021/12/31 08:15:05;;;;;;;9.63;4.18;;;12.10;99.90;;;;;;5115232;28;20165;-57
2021/12/31 08:17:30;;;;;;;4.88;2.67;;;12.10;99.90;;;;;;5115083;28;20176;-48
2021/12/31 08:19:56;;;;;;;4.75;2.65;;;12.10;99.90;;;;;;5115485;28;20165;-48
2021/12/31 08:22:22;;;;;;;5.07;2.78;;;12.10;99.90;;;;;;5115055;28;20165;-50
2021/12/31 08:24:48;;;;;;;4.50;2.38;;;12.20;99.90;;;;;;5096954;28;20261;-52
2021/12/31 08:27:13;;;;;;;3.03;2.17;;;12.20;99.90;;;;;;5114970;28;20161;-48
2021/12/31 08:29:39;;;;;;;5.57;2.47;;;12.30;99.90;;;;;;5113609;28;20242;-49
2021/12/31 08:32:05;;;;;;;4.80;2.33;;;12.30;99.90;;;;;;5114855;28;20239;-53
2021/12/31 08:34:30;;;;;;;3.75;2.28;;;12.30;99.90;;;;;;5115084;28;20577;-50
2021/12/31 08:36:57;;;;;;;3.92;2.08;;;12.30;99.90;;;;;;5115184;28;20221;-48
2021/12/31 08:39:23;;;;;;;3.22;2.33;;;12.40;99.90;;;;;;5114643;28;20637;-56
2021/12/31 08:41:48;;;;;;;9.10;2.90;;;12.40;99.90;;;;;;5114709;28;20265;-58
2021/12/31 08:44:14;;;;;;;3.15;2.20;;;12.40;99.90;;;;;;5115107;28;20192;-55
2021/12/31 08:46:41;;;;;;;4.40;2.42;;;12.40;99.90;;;;;;5114607;28;20179;-52
2021/12/31 08:49:07;;;;;;;2.20;2.00;;;12.40;99.90;;;;;;5096321;28;20164;-53
2021/12/31 08:51:33;;;;;;;3.25;2.05;;;12.30;99.90;;;;;;5096206;28;20537;-52
2021/12/31 08:53:59;;;;;;;4.10;2.45;;;12.30;99.90;;;;;;5114501;28;20176;-52
2021/12/31 08:56:25;;;;;;;4.03;2.35;;;12.40;99.90;;;;;;5114706;28;20210;-52
2021/12/31 08:58:50;;;;;;;4.22;2.20;;;12.40;99.90;;;;;;5114324;28;20165;-53
2021/12/31 09:01:16;;;;;;;3.80;2.03;;;12.40;99.90;;;;;;5114331;28;20168;-52
2021/12/31 09:03:41;;;;;;;4.85;2.90;;;12.40;99.90;;;;;;5114424;28;20169;-52
2021/12/31 09:06:07;;;;;;;3.97;2.25;;;12.40;99.90;;;;;;5114461;28;20168;-52
2021/12/31 09:08:34;;;;;;;8.43;3.70;;;12.40;99.90;;;;;;5114160;28;20173;-52
2021/12/31 09:11:00;;;;;;;8.23;2.60;;;12.50;99.90;;;;;;5113900;28;20242;-53
2021/12/31 09:13:27;;;;;;;7.93;2.55;;;12.50;99.90;;;;;;5114354;28;20666;-53
2021/12/31 09:15:53;;;;;;;4.97;2.88;;;12.50;99.90;;;;;;5114321;28;20169;-52
2021/12/31 09:18:19;;;;;;;4.55;2.33;;;12.50;99.90;;;;;;5114230;28;20204;-53
2021/12/31 09:20:45;;;;;;;6.93;2.72;;;12.50;99.90;;;;;;5113882;28;20192;-53
2021/12/31 09:23:11;;;;;;;6.65;2.47;;;12.50;99.90;;;;;;5113859;28;20207;-53
2021/12/31 09:25:36;;;;;;;3.00;2.10;;;12.60;99.90;;;;;;5113759;28;20215;-53
2021/12/31 09:28:02;;;;;;;4.47;2.20;;;12.50;99.90;;;;;;5113889;28;20207;-52
2021/12/31 09:30:27;;;;;;;2.90;2.00;;;12.60;99.90;;;;;;5114064;28;20259;-53
2021/12/31 09:32:53;;;;;;;12.63;7.53;;;12.60;99.90;;;;;;5113881;28;20255;-52
2021/12/31 09:35:18;;;;;;;4.55;2.90;;;12.60;99.90;;;;;;5113543;28;20176;-52
2021/12/31 09:37:44;;;;;;;9.25;5.03;;;12.70;99.90;;;;;;5095480;28;20568;-52
2021/12/31 09:40:11;;;;;;;3.72;2.45;;;12.70;99.90;;;;;;5113107;28;20666;-53
2021/12/31 09:42:38;;;;;;;6.47;3.13;;;12.70;99.90;;;;;;5113778;28;20168;-53
2021/12/31 09:45:04;;;;;;;5.90;2.85;;;12.80;99.90;;;;;;5113693;28;20208;-53
2021/12/31 09:47:30;;;;;;;4.13;2.75;;;12.70;99.90;;;;;;5113274;28;20188;-52
2021/12/31 09:49:56;;;;;;;8.35;3.60;;;12.80;99.90;;;;;;5113855;28;20168;-52
2021/12/31 09:52:28;;;;;;;5.68;2.55;;;12.80;99.90;;;;;;5113348;28;20180;-52
2021/12/31 09:54:53;;;;;;;3.17;2.35;;;12.80;99.90;;;;;;5113658;28;20624;-52
2021/12/31 09:57:20;;;;;;;5.00;2.80;;;12.90;99.90;;;;;;5113223;28;20161;-53
2021/12/31 09:59:47;;;;;;;4.03;2.50;;;12.90;99.90;;;;;;5113212;28;20168;-52
2021/12/31 10:02:15;;;;;;;5.68;3.72;;;12.90;99.90;;;;;;5113145;28;20165;-52
2021/12/31 10:04:54;;;;;;;7.68;3.30;;;12.90;99.90;;;;;;5113278;28;20216;-52
2021/12/31 10:07:21;;;;;;;5.13;3.75;;;12.80;99.90;;;;;;5113058;28;20172;-53
2021/12/31 10:10:09;;;;;;;3.63;2.00;;;12.90;99.90;;;;;;5113321;28;20226;-52
2021/12/31 10:12:58;;;;;;;3.15;2.08;;;13.00;99.90;;;;;;5112937;28;20720;-53
2021/12/31 10:15:25;;;;;;;4.20;2.63;;;13.00;99.90;;;;;;5113521;28;20172;-52
2021/12/31 10:17:52;;;;;;;9.50;2.90;;;13.10;99.90;;;;;;5112872;28;20183;-53
2021/12/31 10:20:18;;;;;;;6.30;2.40;;;13.20;99.90;;;;;;5112984;28;20168;-54
2021/12/31 10:22:46;;;;;;;4.63;2.33;;;13.30;99.90;;;;;;5112817;28;20239;-53
2021/12/31 10:25:21;;;;;;;7.30;2.97;;;13.30;99.90;;;;;;5112663;28;20200;-53
2021/12/31 10:27:49;;;;;;;5.15;3.30;;;13.30;99.90;;;;;;5112984;28;20200;-53
2021/12/31 10:30:22;;;;;;;5.03;2.50;;;13.40;99.90;;;;;;5112723;28;20218;-53
2021/12/31 10:32:48;;;;;;;2.88;2.20;;;13.40;99.90;;;;;;5112949;28;20246;-52
2021/12/31 10:35:20;;;;;;;2.47;2.08;;;13.50;99.90;;;;;;5112607;28;20265;-53
2021/12/31 10:37:57;;;;;;;3.08;2.03;;;13.50;99.90;;;;;;5112649;28;20194;-53
2021/12/31 10:40:39;;;;;;;2.13;1.90;;;13.50;99.90;;;;;;5112583;28;20537;-53
2021/12/31 10:43:21;;;;;;;7.18;1.73;;;13.60;99.90;;;;;;5112975;28;20169;-53
2021/12/31 10:45:57;;;;;;;9.38;1.90;;;13.60;99.90;;;;;;5112697;28;20566;-53
2021/12/31 10:48:36;;;;;;;10.40;2.40;;;13.60;99.90;;;;;;5112457;28;20157;-52
2021/12/31 10:51:02;;;;;;;6.05;2.03;;;13.70;99.90;;;;;;5111831;28;20164;-53
2021/12/31 10:53:33;;;;;;;8.35;1.80;;;13.70;99.90;;;;;;5112530;28;20218;-53
2021/12/31 10:56:10;;;;;;;6.40;2.38;;;13.70;99.90;;;;;;5094453;28;20175;-52
2021/12/31 10:58:42;;;;;;;4.90;1.75;;;13.70;99.90;;;;;;5094175;28;20160;-53
2021/12/31 11:01:12;;;;;;;3.25;1.90;;;13.70;99.90;;;;;;5112608;28;20191;-52
2021/12/31 11:03:38;;;;;;;2.42;1.50;;;13.70;99.90;;;;;;5112327;28;20156;-54
2021/12/31 11:06:07;;;;;;;3.72;1.55;;;13.70;99.90;;;;;;5112559;28;20177;-53
2021/12/31 11:08:34;;;;;;;2.03;1.60;;;13.70;99.90;;;;;;5112332;28;20225;-53
2021/12/31 11:11:01;;;;;;;3.08;1.50;;;13.70;99.90;;;;;;5093779;28;20220;-53
2021/12/31 11:13:28;;;;;;;2.85;1.98;;;13.70;99.90;;;;;;5112798;28;20169;-55
2021/12/31 11:15:55;;;;;;;3.08;1.73;;;13.70;99.90;;;;;;5112621;28;20161;-55
2021/12/31 11:18:23;;;;;;;3.15;1.63;;;13.70;99.90;;;;;;5112458;28;20195;-53
2021/12/31 11:20:54;;;;;;;2.92;1.60;;;13.70;99.90;;;;;;5112485;28;20185;-55
2021/12/31 11:23:27;;;;;;;2.65;1.48;;;13.70;99.90;;;;;;5112185;28;20213;-54
2021/12/31 11:26:11;;;;;;;7.78;2.00;;;13.70;99.90;;;;;;5112130;28;20181;-53
2021/12/31 11:28:45;;;;;;;2.28;1.20;;;13.70;99.90;;;;;;5112384;28;20171;-53
2021/12/31 11:31:19;;;;;;;2.03;1.30;;;13.80;99.90;;;;;;5112388;28;20168;-54
2021/12/31 11:33:46;;;;;;;1.83;1.40;;;13.90;99.90;;;;;;5112021;28;20167;-53
2021/12/31 11:36:13;;;;;;;1.30;1.20;;;13.90;99.90;;;;;;5112313;28;20173;-53
2021/12/31 11:38:42;;;;;;;2.75;1.35;;;13.90;99.90;;;;;;5112253;28;20306;-53
2021/12/31 11:41:11;;;;;;;1.20;1.13;;;13.90;99.90;;;;;;5111975;28;20161;-53
2021/12/31 11:43:38;;;;;;;1.90;1.65;;;13.90;99.90;;;;;;5112165;28;20209;-52
2021/12/31 11:46:10;;;;;;;1.58;1.38;;;13.90;99.90;;;;;;5112192;28;20181;-53
2021/12/31 11:48:45;;;;;;;1.92;1.33;;;14.00;99.90;;;;;;5111979;28;20519;-53
2021/12/31 11:51:12;;;;;;;2.78;1.52;;;13.90;99.90;;;;;;5112182;28;20183;-52
2021/12/31 11:53:56;;;;;;;1.98;1.38;;;13.90;99.90;;;;;;5111839;28;20176;-55
2021/12/31 11:59:10;;;;;;;4.43;1.95;;;13.90;99.90;;;;;;5111866;28;20251;-53
2021/12/31 12:01:39;;;;;;;2.95;1.80;;;14.00;99.90;;;;;;5111802;28;20180;-54
2021/12/31 12:04:30;;;;;;;3.20;1.40;;;14.10;99.90;;;;;;5114617;28;20192;-54
2021/12/31 12:07:12;;;;;;;1.98;1.60;;;14.10;99.90;;;;;;5115709;28;20172;-53
2021/12/31 12:09:37;;;;;;;1.83;1.23;;;14.10;99.90;;;;;;5114845;28;20616;-54
2021/12/31 12:12:03;;;;;;;1.77;1.30;;;14.20;99.90;;;;;;5115181;28;20216;-53
2021/12/31 12:14:28;;;;;;;4.38;1.75;;;14.30;99.90;;;;;;5115129;28;20624;-52
2021/12/31 12:16:57;;;;;;;1.55;1.45;;;14.30;99.90;;;;;;5115155;28;20168;-52
2021/12/31 12:19:22;;;;;;;1.30;1.20;;;14.30;99.90;;;;;;5115130;28;20632;-54
2021/12/31 12:21:52;;;;;;;1.92;1.23;;;14.30;99.90;;;;;;5115241;28;21149;-53
2021/12/31 12:24:23;;;;;;;1.83;1.58;;;14.30;99.90;;;;;;5114919;28;20604;-52
2021/12/31 12:26:49;;;;;;;2.17;1.35;;;14.30;99.90;;;;;;5114976;28;20165;-52
2021/12/31 12:29:25;;;;;;;3.35;1.40;;;14.30;99.90;;;;;;5114971;28;20294;-55
2021/12/31 12:32:11;;;;;;;1.67;1.50;;;14.30;99.90;;;;;;5115125;28;20172;-53
2021/12/31 12:34:36;;;;;;;1.95;1.30;;;14.30;99.90;;;;;;5115186;28;20181;-55
2021/12/31 12:37:03;;;;;;;2.47;1.45;;;14.30;99.90;;;;;;5115079;28;20161;-53
2021/12/31 12:39:30;;;;;;;3.78;1.40;;;14.40;99.90;;;;;;5114996;28;20255;-55
2021/12/31 12:41:55;;;;;;;2.80;1.27;;;14.40;99.90;;;;;;5115020;28;20628;-52
2021/12/31 12:44:21;;;;;;;1.88;1.52;;;14.40;99.90;;;;;;5114484;28;20203;-55
2021/12/31 12:47:05;;;;;;;2.65;1.45;;;14.40;99.90;;;;;;5114563;28;20238;-53
2021/12/31 12:49:30;;;;;;;1.63;1.40;;;14.40;99.90;;;;;;5114579;28;20527;-53